createdAt,value
2023-01-08T00:02:31.802Z,98824.53
2023-01-08T00:04:59.453Z,98823.59
2023-01-08T00:07:27.369Z,98801.03
2023-01-08T00:09:56.497Z,98814.75
2023-01-08T00:12:24.168Z,98820.19
2023-01-08T00:14:51.978Z,98820.78
2023-01-08T00:17:19.995Z,98811.31
2023-01-08T00:19:47.601Z,98805.16
2023-01-08T00:22:15.233Z,98801.75
2023-01-08T00:24:42.875Z,98809.53
2023-01-08T00:27:12.051Z,98786.94
2023-01-08T00:29:39.647Z,98789.22
2023-01-08T00:32:07.292Z,98784.06
2023-01-08T00:34:34.960Z,98792.88
2023-01-08T00:37:02.644Z,98773.44
2023-01-08T00:39:30.325Z,98785.31
2023-01-08T00:41:57.957Z,98779.56
2023-01-08T00:44:26.888Z,98781.31
2023-01-08T00:46:54.537Z,98760.78
2023-01-08T00:49:22.115Z,98784.75
2023-01-08T00:51:49.820Z,98803.41
2023-01-08T00:54:17.432Z,98765.66
2023-01-08T00:56:45.077Z,98731.41
2023-01-08T00:59:12.720Z,98763.75
2023-01-08T01:01:41.839Z,98758.59
2023-01-08T01:04:09.587Z,98710.03
2023-01-08T01:06:37.227Z,98756.59
2023-01-08T01:09:05.056Z,98752.31
2023-01-08T01:11:32.695Z,98754.84
2023-01-08T01:14:00.394Z,98776.66
2023-01-08T01:16:28.267Z,98752.38
2023-01-08T01:18:58.311Z,98760.13
2023-01-08T01:21:26.584Z,98763.50
2023-01-08T01:23:54.638Z,98747.25
2023-01-08T01:26:23.308Z,98759.00
2023-01-08T01:28:52.797Z,98760.88
2023-01-08T01:31:20.575Z,98771.09
2023-01-08T01:33:54.578Z,98761.34
2023-01-08T01:36:23.923Z,98736.78
2023-01-08T01:38:52.497Z,98770.03
2023-01-08T01:41:25.096Z,98752.53
2023-01-08T01:43:53.068Z,98773.44
2023-01-08T01:46:25.167Z,98722.69
2023-01-08T01:48:54.405Z,98770.91
2023-01-08T01:51:23.375Z,98762.28
2023-01-08T01:53:51.105Z,98759.44
2023-01-08T01:56:18.719Z,98763.88
2023-01-08T01:58:46.405Z,98757.94
2023-01-08T02:01:15.144Z,98770.19
2023-01-08T02:03:42.932Z,98755.44
2023-01-08T02:06:17.219Z,98770.91
2023-01-08T02:08:51.849Z,98759.66
2023-01-08T02:11:23.144Z,98733.88
2023-01-08T02:13:52.988Z,98755.34
2023-01-08T02:16:23.107Z,98716.94
2023-01-08T02:18:52.499Z,98709.91
2023-01-08T02:21:22.623Z,98754.88
2023-01-08T02:23:56.522Z,98748.00
2023-01-08T02:26:27.160Z,98743.06
2023-01-08T02:28:56.432Z,98740.31
2023-01-08T02:31:24.328Z,98722.25
2023-01-08T02:33:52.108Z,98724.78
2023-01-08T02:36:26.802Z,98720.53
2023-01-08T02:39:00.723Z,98706.75
2023-01-08T02:41:32.449Z,98662.28
2023-01-08T02:44:00.045Z,98710.28
2023-01-08T02:46:28.576Z,98673.81
2023-01-08T02:48:59.196Z,98699.16
2023-01-08T02:51:29.161Z,98648.69
2023-01-08T02:53:58.605Z,98665.13
2023-01-08T02:56:29.386Z,98702.03
2023-01-08T02:58:56.971Z,98679.19
2023-01-08T03:01:25.986Z,98681.91
2023-01-08T03:03:54.740Z,98653.84
2023-01-08T03:06:22.435Z,98665.63
2023-01-08T03:08:51.191Z,98632.09
2023-01-08T03:11:20.489Z,98668.13
2023-01-08T03:13:51.837Z,98663.91
2023-01-08T03:16:21.343Z,98663.69
2023-01-08T03:18:50.815Z,98661.28
2023-01-08T03:21:18.570Z,98664.78
2023-01-08T03:23:47.118Z,98660.41
2023-01-08T03:26:14.993Z,98649.28
2023-01-08T03:28:44.728Z,98653.56
2023-01-08T03:31:14.607Z,98650.78
2023-01-08T03:33:42.285Z,98663.84
2023-01-08T03:36:10.454Z,98650.94
2023-01-08T03:38:40.624Z,98577.81
2023-01-08T03:41:10.568Z,98657.81
2023-01-08T03:43:38.157Z,98650.94
2023-01-08T03:46:07.925Z,98650.78
2023-01-08T03:48:37.020Z,98645.56
2023-01-08T03:51:04.772Z,98643.66
2023-01-08T03:53:32.421Z,98647.13
2023-01-08T03:56:00.016Z,98649.91
2023-01-08T03:58:27.567Z,98653.31
2023-01-08T04:00:55.562Z,98589.81
2023-01-08T04:03:24.529Z,98651.66
2023-01-08T04:05:53.598Z,98648.03
2023-01-08T04:08:21.171Z,98650.53
2023-01-08T04:10:48.908Z,98646.22
2023-01-08T04:13:17.345Z,98635.88
2023-01-08T04:15:48.772Z,98645.59
2023-01-08T04:18:16.375Z,98641.28
2023-01-08T04:20:46.246Z,98646.56
2023-01-08T04:23:15.166Z,98640.34
2023-01-08T04:25:42.886Z,98640.44
2023-01-08T04:28:10.472Z,98622.19
2023-01-08T04:30:38.340Z,98614.41
2023-01-08T04:33:08.798Z,98610.72
2023-01-08T04:35:36.393Z,98622.75
2023-01-08T04:38:03.948Z,98618.31
2023-01-08T04:40:33.396Z,98623.84
2023-01-08T04:43:11.674Z,98609.03
2023-01-08T04:45:39.238Z,98614.31
2023-01-08T04:48:07.563Z,98621.38
2023-01-08T04:50:35.416Z,98615.38
2023-01-08T04:53:03.042Z,98627.38
2023-01-08T04:55:35.572Z,98610.38
2023-01-08T04:58:06.384Z,98459.25
2023-01-08T05:00:34.072Z,98571.63
2023-01-08T05:03:01.715Z,98601.47
2023-01-08T05:05:31.398Z,98596.09
2023-01-08T05:08:03.835Z,98588.31
2023-01-08T05:10:31.506Z,98606.69
2023-01-08T05:13:00.817Z,98596.22
2023-01-08T05:15:28.462Z,98611.94
2023-01-08T05:18:00.283Z,98597.94
2023-01-08T05:20:27.947Z,98585.72
2023-01-08T05:22:56.275Z,98553.41
2023-01-08T05:25:23.885Z,98583.94
2023-01-08T05:27:51.610Z,98583.91
2023-01-08T05:30:20.759Z,98572.66
2023-01-08T05:32:48.414Z,98581.16
2023-01-08T05:35:15.976Z,98578.50
2023-01-08T05:37:43.603Z,98577.69
2023-01-08T05:40:12.458Z,98564.63
2023-01-08T05:42:40.176Z,98571.53
2023-01-08T05:45:08.967Z,98573.25
2023-01-08T05:47:38.023Z,98554.94
2023-01-08T05:50:06.328Z,98573.00
2023-01-08T05:52:34.057Z,98570.47
2023-01-08T05:55:04.945Z,98571.47
2023-01-08T05:57:33.075Z,98574.84
2023-01-08T06:00:04.743Z,98567.22
2023-01-08T06:02:32.507Z,98576.00
2023-01-08T06:05:01.475Z,98528.09
2023-01-08T06:10:09.853Z,98577.91
2023-01-08T06:12:37.464Z,98574.56
2023-01-08T06:15:05.865Z,98567.53
2023-01-08T06:17:33.562Z,98577.31
2023-01-08T06:20:02.662Z,98570.41
2023-01-08T06:22:30.243Z,98582.63
2023-01-08T06:24:58.508Z,98565.13
2023-01-08T06:27:26.088Z,98568.69
2023-01-08T06:29:53.771Z,98553.00
2023-01-08T06:32:21.407Z,98564.16
2023-01-08T06:34:49.105Z,98571.97
2023-01-08T06:37:18.095Z,98565.91
2023-01-08T06:39:45.750Z,98565.13
2023-01-08T06:42:13.297Z,98559.94
2023-01-08T06:44:40.976Z,98572.66
2023-01-08T06:47:08.517Z,98581.34
2023-01-08T06:49:36.268Z,98566.47
2023-01-08T06:52:03.836Z,98562.22
2023-01-08T06:54:32.909Z,98563.84
2023-01-08T06:57:00.529Z,98549.13
2023-01-08T06:59:29.510Z,98553.59
2023-01-08T07:01:57.276Z,98554.44
2023-01-08T07:04:25.057Z,98562.28
2023-01-08T07:06:53.718Z,98561.34
2023-01-08T07:09:21.508Z,98566.50
2023-01-08T07:11:50.414Z,98578.50
2023-01-08T07:14:18.121Z,98598.50
2023-01-08T07:16:45.660Z,98619.34
2023-01-08T07:19:15.296Z,98624.75
2023-01-08T07:21:42.845Z,98643.91
2023-01-08T07:24:10.861Z,98656.34
2023-01-08T07:26:39.520Z,98631.25
2023-01-08T07:29:08.788Z,98626.22
2023-01-08T07:31:36.443Z,98642.63
2023-01-08T07:34:04.337Z,98612.31
2023-01-08T07:36:31.886Z,98622.69
2023-01-08T07:38:59.613Z,98633.28
2023-01-08T07:41:27.298Z,98640.34
2023-01-08T07:43:55.013Z,98647.31
2023-01-08T07:46:23.953Z,98648.34
2023-01-08T07:48:51.882Z,98655.19
2023-01-08T07:51:19.589Z,98657.81
2023-01-08T07:53:47.318Z,98647.44
2023-01-08T07:56:16.312Z,98633.66
2023-01-08T07:58:44.107Z,98643.13
2023-01-08T08:01:12.423Z,98637.94
2023-01-08T08:03:41.799Z,98642.34
2023-01-08T08:06:09.860Z,98624.88
2023-01-08T08:08:37.849Z,98625.78
2023-01-08T08:11:05.890Z,98630.13
2023-01-08T08:13:33.793Z,98627.53
2023-01-08T08:16:04.994Z,98625.84
2023-01-08T08:18:32.911Z,98613.78
2023-01-08T08:21:02.013Z,98616.38
2023-01-08T08:23:29.923Z,98619.78
2023-01-08T08:25:57.635Z,98611.13
2023-01-08T08:28:25.438Z,98609.44
2023-01-08T08:30:53.581Z,98618.06
2023-01-08T08:33:21.469Z,98608.50
2023-01-08T08:35:50.172Z,98623.22
2023-01-08T08:38:19.479Z,98627.66
2023-01-08T08:40:47.400Z,98620.63
2023-01-08T08:43:15.338Z,98611.97
2023-01-08T08:45:43.010Z,98608.56
2023-01-08T08:48:11.235Z,98599.66
2023-01-08T08:50:39.047Z,98533.53
2023-01-08T08:53:07.059Z,98596.00
2023-01-08T08:55:36.159Z,98586.31
2023-01-08T08:58:05.379Z,98580.13
2023-01-08T09:00:33.097Z,98556.16
2023-01-08T09:03:01.132Z,98581.97
2023-01-08T09:05:30.107Z,98589.81
2023-01-08T09:07:57.905Z,98582.91
2023-01-08T09:10:25.615Z,98583.97
2023-01-08T09:12:55.534Z,98589.34
2023-01-08T09:15:23.470Z,98586.91
2023-01-08T09:17:55.365Z,98590.34
2023-01-08T09:20:28.995Z,98589.34
2023-01-08T09:22:59.034Z,98582.03
2023-01-08T09:25:26.757Z,98578.94
2023-01-08T09:28:01.337Z,98575.50
2023-01-08T09:30:29.411Z,98584.09
2023-01-08T09:33:02.378Z,98585.03
2023-01-08T09:35:30.529Z,98584.97
2023-01-08T09:37:58.537Z,98591.00
2023-01-08T09:40:29.833Z,98588.03
2023-01-08T09:42:59.975Z,98587.41
2023-01-08T09:45:29.739Z,98588.78
2023-01-08T09:47:57.470Z,98589.59
2023-01-08T09:50:25.244Z,98588.59
2023-01-08T09:52:52.828Z,98587.69
2023-01-08T09:55:20.591Z,98588.47
2023-01-08T09:57:48.142Z,98584.16
2023-01-08T10:00:17.186Z,98560.53
2023-01-08T10:02:46.184Z,98575.00
2023-01-08T10:05:15.046Z,98573.09
2023-01-08T10:07:42.704Z,98569.16
2023-01-08T10:10:18.478Z,98566.63
2023-01-08T10:12:46.071Z,98557.59
2023-01-08T10:15:15.255Z,98547.16
2023-01-08T10:17:43.898Z,98513.97
2023-01-08T10:20:14.879Z,98541.50
2023-01-08T10:22:42.647Z,98537.84
2023-01-08T10:25:11.115Z,98526.84
2023-01-08T10:27:46.642Z,98531.47
2023-01-08T10:30:17.277Z,98524.84
2023-01-08T10:32:48.576Z,98527.47
2023-01-08T10:35:18.827Z,98526.38
2023-01-08T10:37:47.440Z,98523.34
2023-01-08T10:40:29.355Z,98503.53
2023-01-08T10:42:57.658Z,98517.47
2023-01-08T10:45:26.289Z,98507.25
2023-01-08T10:47:56.355Z,98498.44
2023-01-08T10:50:26.667Z,98496.50
2023-01-08T10:52:55.095Z,98475.31
2023-01-08T10:55:24.341Z,98476.38
2023-01-08T10:57:59.028Z,98483.16
2023-01-08T11:00:28.266Z,98473.38
2023-01-08T11:02:56.729Z,98472.59
2023-01-08T11:05:32.558Z,98475.41
2023-01-08T11:08:00.833Z,98467.00
2023-01-08T11:10:28.880Z,98435.19
2023-01-08T11:12:57.477Z,98453.09
2023-01-08T11:15:29.461Z,98419.66
2023-01-08T11:18:08.093Z,98450.41
2023-01-08T11:20:37.211Z,98425.03
2023-01-08T11:23:07.900Z,98444.03
2023-01-08T11:25:35.617Z,98441.34
2023-01-08T11:28:03.443Z,98432.72
2023-01-08T11:30:32.343Z,98417.72
2023-01-08T11:33:03.360Z,98429.19
2023-01-08T11:35:33.951Z,98428.13
2023-01-08T11:38:04.159Z,98422.06
2023-01-08T11:40:35.988Z,98382.78
2023-01-08T11:43:16.503Z,98395.47
2023-01-08T11:45:52.221Z,98375.91
2023-01-08T11:48:28.983Z,98412.63
2023-01-08T11:51:06.120Z,98398.59
2023-01-08T11:53:37.902Z,98402.06
2023-01-08T11:56:13.139Z,98389.56
2023-01-08T11:58:49.332Z,98380.56
2023-01-08T12:01:27.641Z,98392.81
2023-01-08T12:04:01.676Z,98387.03
2023-01-08T12:09:14.611Z,98326.66
2023-01-08T12:11:46.648Z,98349.91
2023-01-08T12:14:22.812Z,98330.69
2023-01-08T12:17:01.433Z,98344.50
2023-01-08T12:19:39.125Z,98363.47
2023-01-08T12:22:21.401Z,98348.00
2023-01-08T12:25:21.236Z,98346.00
2023-01-08T12:27:57.330Z,98348.50
2023-01-08T12:30:27.580Z,98361.91
2023-01-08T12:32:56.918Z,98322.38
2023-01-08T12:35:26.102Z,98348.63
2023-01-08T12:37:55.865Z,98288.84
2023-01-08T12:40:26.780Z,98344.31
2023-01-08T12:43:01.144Z,98342.47
2023-01-08T12:45:30.252Z,98335.59
2023-01-08T12:48:00.381Z,98329.72
2023-01-08T12:50:38.468Z,98334.81
2023-01-08T12:53:10.132Z,98332.94
2023-01-08T12:55:46.704Z,98311.97
2023-01-08T12:58:25.275Z,98320.31
2023-01-08T13:00:57.196Z,98302.84
2023-01-08T13:03:26.486Z,98316.31
2023-01-08T13:05:54.059Z,98315.09
2023-01-08T13:08:29.427Z,98272.50
2023-01-08T13:10:58.606Z,98318.50
2023-01-08T13:13:27.963Z,98310.69
2023-01-08T13:16:18.535Z,98269.84
2023-01-08T13:18:55.974Z,98314.50
2023-01-08T13:21:31.783Z,98297.00
2023-01-08T13:24:04.754Z,98330.69
2023-01-08T13:26:35.096Z,98315.00
2023-01-08T13:29:24.516Z,98303.41
2023-01-08T13:31:52.460Z,98312.94
2023-01-08T13:34:22.370Z,98273.66
2023-01-08T13:36:56.553Z,98266.72
2023-01-08T13:39:24.847Z,98299.56
2023-01-08T13:42:01.386Z,98310.66
2023-01-08T13:44:30.853Z,98299.03
2023-01-08T13:46:59.392Z,98267.97
2023-01-08T13:49:29.081Z,98286.97
2023-01-08T13:51:56.670Z,98280.50
2023-01-08T13:54:31.116Z,98282.88
2023-01-08T13:57:05.595Z,98231.94
2023-01-08T13:59:44.365Z,98283.56
2023-01-08T14:02:24.405Z,98266.44
2023-01-08T14:04:52.361Z,98237.09
2023-01-08T14:07:20.044Z,98271.75
2023-01-08T14:09:47.601Z,98274.47
2023-01-08T14:12:25.836Z,98269.69
2023-01-08T14:14:54.275Z,98276.00
2023-01-08T14:17:23.294Z,98268.38
2023-01-08T14:19:50.911Z,98264.56
2023-01-08T14:22:20.570Z,98264.56
2023-01-08T14:24:52.248Z,98256.53
2023-01-08T14:27:21.240Z,98254.50
2023-01-08T14:29:50.286Z,98251.53
2023-01-08T14:32:18.633Z,98252.41
2023-01-08T14:34:46.414Z,98262.28
2023-01-08T14:37:14.289Z,98261.56
2023-01-08T14:39:42.053Z,98257.75
2023-01-08T14:42:28.031Z,98247.19
2023-01-08T14:44:57.561Z,98248.75
2023-01-08T14:47:26.091Z,98239.63
2023-01-08T14:49:54.213Z,98234.44
2023-01-08T14:52:21.837Z,98180.50
2023-01-08T14:54:50.547Z,98243.16
2023-01-08T14:57:18.516Z,98248.03
2023-01-08T14:59:49.273Z,98238.47
2023-01-08T15:02:25.952Z,98192.88
2023-01-08T15:05:05.462Z,98236.94
2023-01-08T15:07:33.125Z,98220.78
2023-01-08T15:10:02.452Z,98254.69
2023-01-08T15:12:31.617Z,98236.41
2023-01-08T15:15:10.428Z,98230.28
2023-01-08T15:17:39.661Z,98238.38
2023-01-08T15:20:17.389Z,98185.31
2023-01-08T15:22:45.299Z,98233.13
2023-01-08T15:25:16.878Z,98234.16
2023-01-08T15:27:53.242Z,98232.34
2023-01-08T15:30:25.772Z,98229.72
2023-01-08T15:32:54.873Z,98221.78
2023-01-08T15:35:25.686Z,98233.13
2023-01-08T15:37:53.437Z,98228.81
2023-01-08T15:40:21.004Z,98217.53
2023-01-08T15:43:06.339Z,98174.03
2023-01-08T15:45:34.074Z,98211.72
2023-01-08T15:48:04.100Z,98215.28
2023-01-08T15:50:32.700Z,98223.56
2023-01-08T15:53:01.013Z,98214.59
2023-01-08T15:55:28.650Z,98214.72
2023-01-08T15:57:56.240Z,98196.25
2023-01-08T16:00:23.827Z,98225.59
2023-01-08T16:02:52.089Z,98200.66
2023-01-08T16:05:22.512Z,98202.34
2023-01-08T16:07:50.185Z,98169.78
2023-01-08T16:10:18.101Z,98174.72
2023-01-08T16:12:45.891Z,98192.38
2023-01-08T16:15:13.977Z,98195.50
2023-01-08T16:17:41.566Z,98207.47
2023-01-08T16:20:10.293Z,98207.66
2023-01-08T16:22:39.307Z,98214.56
2023-01-08T16:25:07.856Z,98188.75
2023-01-08T16:27:38.164Z,98199.66
2023-01-08T16:30:07.788Z,98200.53
2023-01-08T16:32:35.380Z,98199.91
2023-01-08T16:35:12.156Z,98177.03
2023-01-08T16:37:41.098Z,98184.34
2023-01-08T16:40:14.238Z,98182.66
2023-01-08T16:42:41.883Z,98195.94
2023-01-08T16:45:10.252Z,98189.16
2023-01-08T16:47:38.596Z,98122.00
2023-01-08T16:50:06.998Z,98194.00
2023-01-08T16:52:34.571Z,98196.94
2023-01-08T16:55:03.666Z,98187.47
2023-01-08T16:57:31.327Z,98192.66
2023-01-08T17:00:00.945Z,98194.50
2023-01-08T17:02:28.625Z,98195.47
2023-01-08T17:04:56.317Z,98191.25
2023-01-08T17:07:24.232Z,98170.69
2023-01-08T17:09:51.965Z,98180.56
2023-01-08T17:12:23.249Z,98161.53
2023-01-08T17:14:51.294Z,98167.13
2023-01-08T17:17:18.973Z,98159.94
2023-01-08T17:19:46.644Z,98167.63
2023-01-08T17:22:14.305Z,98156.59
2023-01-08T17:24:42.156Z,98164.41
2023-01-08T17:27:11.322Z,98110.88
2023-01-08T17:29:40.375Z,98161.41
2023-01-08T17:32:07.984Z,98165.34
2023-01-08T17:34:35.828Z,98162.09
2023-01-08T17:37:03.455Z,98143.53
2023-01-08T17:39:31.114Z,98149.44
2023-01-08T17:42:16.364Z,98148.50
2023-01-08T17:44:45.289Z,98147.88
2023-01-08T17:47:13.157Z,98153.78
2023-01-08T17:49:40.879Z,98131.41
2023-01-08T17:52:09.685Z,98158.19
2023-01-08T17:54:37.415Z,98149.66
2023-01-08T17:57:06.093Z,98136.97
2023-01-08T17:59:33.778Z,98138.69
2023-01-08T18:02:03.020Z,98125.78
2023-01-08T18:04:31.702Z,98137.19
2023-01-08T18:06:59.345Z,98132.00
2023-01-08T18:11:56.436Z,98135.28
2023-01-08T18:14:24.439Z,98132.81
2023-01-08T18:16:53.154Z,98115.41
2023-01-08T18:19:22.576Z,98115.97
2023-01-08T18:21:50.345Z,98119.41
2023-01-08T18:24:18.136Z,98110.50
2023-01-08T18:26:46.482Z,98131.47
2023-01-08T18:29:14.601Z,98122.69
2023-01-08T18:31:44.991Z,98107.72
2023-01-08T18:34:15.031Z,98077.78
2023-01-08T18:36:46.653Z,98088.78
2023-01-08T18:39:14.941Z,98094.69
2023-01-08T18:42:00.417Z,98085.94
2023-01-08T18:44:28.172Z,98091.22
2023-01-08T18:46:55.987Z,98096.50
2023-01-08T18:49:24.512Z,98092.22
2023-01-08T18:51:53.699Z,98079.03
2023-01-08T18:54:21.625Z,98078.25
2023-01-08T18:56:51.048Z,98073.97
2023-01-08T18:59:18.826Z,98071.28
2023-01-08T19:01:46.840Z,98061.81
2023-01-08T19:04:15.389Z,98072.94
2023-01-08T19:06:43.158Z,98068.50
2023-01-08T19:09:12.239Z,98070.31
2023-01-08T19:11:39.979Z,98049.63
2023-01-08T19:14:14.690Z,98059.84
2023-01-08T19:16:43.586Z,98057.31
2023-01-08T19:19:11.326Z,98054.53
2023-01-08T19:21:38.985Z,98060.09
2023-01-08T19:24:07.272Z,98048.63
2023-01-08T19:26:36.337Z,98047.53
2023-01-08T19:29:04.993Z,98039.78
2023-01-08T19:31:33.047Z,98034.41
2023-01-08T19:34:01.058Z,98034.28
2023-01-08T19:36:28.948Z,97990.59
2023-01-08T19:38:57.479Z,98006.16
2023-01-08T19:41:42.490Z,98016.59
2023-01-08T19:44:11.740Z,98005.25
2023-01-08T19:46:39.701Z,97992.88
2023-01-08T19:49:07.324Z,97999.09
2023-01-08T19:51:35.130Z,97992.03
2023-01-08T19:54:02.894Z,97995.50
2023-01-08T19:56:30.844Z,97990.03
2023-01-08T19:58:58.572Z,97989.13
2023-01-08T20:01:28.525Z,97983.94
2023-01-08T20:03:56.877Z,97994.34
2023-01-08T20:06:26.142Z,97975.34
2023-01-08T20:08:58.198Z,97963.16
2023-01-08T20:11:26.167Z,97919.69
2023-01-08T20:13:55.430Z,97970.09
2023-01-08T20:16:34.009Z,97957.00
2023-01-08T20:19:04.367Z,97968.94
2023-01-08T20:21:34.178Z,97961.22
2023-01-08T20:24:03.890Z,97958.88
2023-01-08T20:26:32.521Z,97957.34
2023-01-08T20:29:00.173Z,97953.13
2023-01-08T20:31:30.733Z,97926.00
2023-01-08T20:33:58.616Z,97951.09
2023-01-08T20:36:29.116Z,97931.41
2023-01-08T20:38:57.719Z,97941.53
2023-01-08T20:41:26.661Z,97942.50
2023-01-08T20:43:56.037Z,97938.97
2023-01-08T20:46:24.067Z,97941.75
2023-01-08T20:48:51.866Z,97935.59
2023-01-08T20:51:19.687Z,97929.81
2023-01-08T20:53:48.812Z,97932.16
2023-01-08T20:56:16.617Z,97933.91
2023-01-08T20:58:45.605Z,97923.16
2023-01-08T21:01:14.402Z,97923.09
2023-01-08T21:03:43.535Z,97925.34
2023-01-08T21:06:12.540Z,97917.34
2023-01-08T21:08:40.357Z,97905.44
2023-01-08T21:11:09.769Z,97906.19
2023-01-08T21:13:37.577Z,97907.88
2023-01-08T21:16:07.511Z,97919.78
2023-01-08T21:18:35.439Z,97903.81
2023-01-08T21:21:10.229Z,97896.00
2023-01-08T21:23:37.940Z,97896.50
2023-01-08T21:26:10.630Z,97885.09
2023-01-08T21:28:39.950Z,97889.97
2023-01-08T21:31:09.076Z,97854.47
2023-01-08T21:33:40.297Z,97874.13
2023-01-08T21:36:09.494Z,97880.91
2023-01-08T21:38:37.320Z,97863.38
2023-01-08T21:41:06.011Z,97854.84
2023-01-08T21:43:51.906Z,97854.66
2023-01-08T21:46:20.920Z,97845.84
2023-01-08T21:48:51.560Z,97836.00
2023-01-08T21:51:36.748Z,97823.81
2023-01-08T21:54:05.048Z,97818.66
2023-01-08T21:56:32.647Z,97832.00
2023-01-08T21:59:00.451Z,97836.41
2023-01-08T22:01:30.254Z,97834.72
2023-01-08T22:03:58.206Z,97825.22
2023-01-08T22:06:25.996Z,97816.63
2023-01-08T22:08:56.300Z,97808.81
2023-01-08T22:11:24.742Z,97783.94
2023-01-08T22:13:52.313Z,97813.47
2023-01-08T22:16:19.978Z,97789.00
2023-01-08T22:18:48.933Z,97797.00
2023-01-08T22:21:16.559Z,97784.69
2023-01-08T22:23:44.110Z,97789.34
2023-01-08T22:26:12.486Z,97771.91
2023-01-08T22:28:40.030Z,97772.38
2023-01-08T22:31:07.976Z,97763.75
2023-01-08T22:33:35.567Z,97755.75
2023-01-08T22:36:04.736Z,97766.50
2023-01-08T22:38:32.300Z,97758.69
2023-01-08T22:41:00.013Z,97749.88
2023-01-08T22:43:27.659Z,97754.38
2023-01-08T22:45:55.317Z,97747.44
2023-01-08T22:48:22.972Z,97759.53
2023-01-08T22:50:50.583Z,97746.84
2023-01-08T22:53:19.588Z,97748.03
2023-01-08T22:55:47.780Z,97755.03
2023-01-08T22:58:15.588Z,97749.16
2023-01-08T23:00:43.213Z,97748.22
2023-01-08T23:03:10.854Z,97735.13
2023-01-08T23:05:38.499Z,97754.47
2023-01-08T23:08:06.491Z,97745.03
2023-01-08T23:10:35.625Z,97736.31
2023-01-08T23:13:04.606Z,97714.56
2023-01-08T23:15:32.224Z,97743.81
2023-01-08T23:17:59.788Z,97737.78
2023-01-08T23:20:27.415Z,97734.31
2023-01-08T23:22:54.991Z,97743.03
2023-01-08T23:25:22.638Z,97736.00
2023-01-08T23:27:51.904Z,97737.00
2023-01-08T23:30:19.660Z,97749.19
2023-01-08T23:32:47.323Z,97738.13
2023-01-08T23:35:14.876Z,97747.59
2023-01-08T23:37:42.580Z,97741.72
2023-01-08T23:40:11.599Z,97739.16
2023-01-08T23:42:39.343Z,97729.13
2023-01-08T23:45:11.264Z,97735.25
2023-01-08T23:47:39.018Z,97731.03
2023-01-08T23:50:07.719Z,97745.72
2023-01-08T23:52:35.344Z,97736.31
2023-01-08T23:55:02.891Z,97747.09
2023-01-08T23:57:30.514Z,97745.66
2023-01-08T23:59:58.047Z,97742.25
